sensor_id;sensor_type;location;lat;lon;timestamp;P1;P2;P0
77516;PMS7003;68414;53.946;27.634;2024-03-23T00:52:17;32.216667;29.000000;18.016666
77516;PMS7003;68414;53.946;27.634;2024-03-23T00:54:17;34.983334;30.950001;18.516666
77516;PMS7003;68414;53.946;27.634;2024-03-23T00:55:17;31.966667;30.266666;19.200001
77516;PMS7003;68414;53.946;27.634;2024-03-23T00:56:17;33.966667;30.616667;18.400000
77516;PMS7003;68414;53.946;27.634;2024-03-23T00:57:17;34.150002;29.066668;18.950001
77516;PMS7003;68414;53.946;27.634;2024-03-23T00:58:17;36.700001;32.166668;18.633333
77516;PMS7003;68414;53.946;27.634;2024-03-23T00:59:17;36.549999;31.900000;18.083334
77516;PMS7003;68414;53.946;27.634;2024-03-23T01:00:17;33.016666;29.400000;16.633333
77516;PMS7003;68414;53.946;27.634;2024-03-23T01:01:17;34.883335;30.483334;17.933332
77516;PMS7003;68414;53.946;27.634;2024-03-23T01:02:17;37.700001;32.416668;18.516666
77516;PMS7003;68414;53.946;27.634;2024-03-23T01:03:17;35.483334;31.066668;18.400000
77516;PMS7003;68414;53.946;27.634;2024-03-23T01:04:17;36.366665;31.700001;18.900000
77516;PMS7003;68414;53.946;27.634;2024-03-23T01:05:17;36.033333;31.850000;19.116667
77516;PMS7003;68414;53.946;27.634;2024-03-23T01:06:17;37.250000;32.216667;18.366667
77516;PMS7003;68414;53.946;27.634;2024-03-23T01:07:17;34.049999;30.516666;19.066668
77516;PMS7003;68414;53.946;27.634;2024-03-23T01:08:17;34.916668;31.450001;18.600000
77516;PMS7003;68414;53.946;27.634;2024-03-23T01:09:17;32.799999;29.833334;18.799999
77516;PMS7003;68414;53.946;27.634;2024-03-23T01:10:17;35.049999;31.233334;18.700001
77516;PMS7003;68414;53.946;27.634;2024-03-23T01:11:17;35.933334;31.833334;18.883333
77516;PMS7003;68414;53.946;27.634;2024-03-23T01:12:17;33.166668;30.416666;19.183332
77516;PMS7003;68414;53.946;27.634;2024-03-23T01:13:17;35.383335;31.566668;18.700001
77516;PMS7003;68414;53.946;27.634;2024-03-23T01:14:17;36.433334;31.816668;18.066668
77516;PMS7003;68414;53.946;27.634;2024-03-23T01:15:17;38.900002;32.583332;20.049999
77516;PMS7003;68414;53.946;27.634;2024-03-23T01:16:17;35.333332;31.633333;19.233334
77516;PMS7003;68414;53.946;27.634;2024-03-23T01:17:17;35.483334;31.283333;19.200001
77516;PMS7003;68414;53.946;27.634;2024-03-23T01:18:19;36.183334;31.350000;18.850000
77516;PMS7003;68414;53.946;27.634;2024-03-23T01:19:17;34.066666;30.716667;18.583334
77516;PMS7003;68414;53.946;27.634;2024-03-23T01:20:17;37.049999;31.866667;19.083334
77516;PMS7003;68414;53.946;27.634;2024-03-23T01:21:17;34.333332;30.400000;17.983334
77516;PMS7003;68414;53.946;27.634;2024-03-23T01:22:17;34.733334;30.416666;18.083334
77516;PMS7003;68414;53.946;27.634;2024-03-23T01:23:17;34.833332;31.100000;19.616667
77516;PMS7003;68414;53.946;27.634;2024-03-23T01:24:17;35.833332;32.166668;18.650000
77516;PMS7003;68414;53.946;27.634;2024-03-23T01:25:17;34.483334;31.533333;19.033333
77516;PMS7003;68414;53.946;27.634;2024-03-23T01:26:17;36.883335;31.000000;18.650000
77516;PMS7003;68414;53.946;27.634;2024-03-23T01:27:17;34.983334;31.416666;18.900000
77516;PMS7003;68414;53.946;27.634;2024-03-23T01:28:19;34.450001;30.083334;18.250000
77516;PMS7003;68414;53.946;27.634;2024-03-23T01:29:17;37.916668;32.450001;19.033333
77516;PMS7003;68414;53.946;27.634;2024-03-23T01:30:17;32.733334;30.033333;18.366667
77516;PMS7003;68414;53.946;27.634;2024-03-23T01:31:17;34.783333;31.900000;19.383333
77516;PMS7003;68414;53.946;27.634;2024-03-23T01:32:17;34.650002;31.466667;18.466667
77516;PMS7003;68414;53.946;27.634;2024-03-23T01:33:17;38.799999;31.416666;18.700001
77516;PMS7003;68414;53.946;27.634;2024-03-23T01:34:18;34.700001;30.900000;18.299999
77516;PMS7003;68414;53.946;27.634;2024-03-23T01:35:17;36.883335;31.766666;20.016666
77516;PMS7003;68414;53.946;27.634;2024-03-23T01:36:17;37.183334;31.900000;19.366667
77516;PMS7003;68414;53.946;27.634;2024-03-23T01:37:17;36.700001;32.133335;18.750000
77516;PMS7003;68414;53.946;27.634;2024-03-23T01:38:17;36.683334;31.200001;18.883333
77516;PMS7003;68414;53.946;27.634;2024-03-23T01:39:17;35.299999;30.833334;19.083334
77516;PMS7003;68414;53.946;27.634;2024-03-23T01:40:17;38.400002;32.216667;18.950001
77516;PMS7003;68414;53.946;27.634;2024-03-23T01:41:17;38.633335;32.616665;19.799999
77516;PMS7003;68414;53.946;27.634;2024-03-23T01:42:17;37.000000;32.066666;19.266666
77516;PMS7003;68414;53.946;27.634;2024-03-23T01:43:17;35.816666;31.750000;19.049999
77516;PMS7003;68414;53.946;27.634;2024-03-23T01:44:17;33.216667;30.400000;19.250000
77516;PMS7003;68414;53.946;27.634;2024-03-23T01:45:17;36.616665;32.266666;19.933332
77516;PMS7003;68414;53.946;27.634;2024-03-23T01:46:17;38.700001;31.333334;19.033333
77516;PMS7003;68414;53.946;27.634;2024-03-23T01:47:17;37.049999;32.250000;19.533333
77516;PMS7003;68414;53.946;27.634;2024-03-23T01:48:17;35.400002;32.083332;20.250000
77516;PMS7003;68414;53.946;27.634;2024-03-23T01:49:17;36.666668;32.466667;18.283333
77516;PMS7003;68414;53.946;27.634;2024-03-23T01:50:17;38.933334;32.950001;18.650000
77516;PMS7003;68414;53.946;27.634;2024-03-23T01:51:17;40.033333;32.366665;19.616667
77516;PMS7003;68414;53.946;27.634;2024-03-23T01:52:17;35.950001;32.116665;18.700001
77516;PMS7003;68414;53.946;27.634;2024-03-23T01:53:17;33.883335;30.500000;18.833334
77516;PMS7003;68414;53.946;27.634;2024-03-23T01:54:17;34.900002;31.200001;18.750000
77516;PMS7003;68414;53.946;27.634;2024-03-23T01:55:18;32.633335;30.350000;18.500000
77516;PMS7003;68414;53.946;27.634;2024-03-23T01:56:17;34.683334;30.433332;18.566668
77516;PMS7003;68414;53.946;27.634;2024-03-23T01:57:17;33.566666;30.500000;18.799999
77516;PMS7003;68414;53.946;27.634;2024-03-23T01:58:17;37.583332;31.666666;18.833334
77516;PMS7003;68414;53.946;27.634;2024-03-23T01:59:17;34.766666;30.816668;19.049999
77516;PMS7003;68414;53.946;27.634;2024-03-23T02:00:17;32.166668;30.366667;18.516666
77516;PMS7003;68414;53.946;27.634;2024-03-23T02:01:17;37.116665;32.033333;18.250000
77516;PMS7003;68414;53.946;27.634;2024-03-23T02:02:17;36.450001;32.099998;19.483334
77516;PMS7003;68414;53.946;27.634;2024-03-23T02:04:17;34.033333;29.866667;18.799999
77516;PMS7003;68414;53.946;27.634;2024-03-23T02:05:17;32.516666;29.600000;19.166666
77516;PMS7003;68414;53.946;27.634;2024-03-23T02:06:17;37.799999;31.516666;17.683332
77516;PMS7003;68414;53.946;27.634;2024-03-23T02:07:17;35.450001;31.666666;18.683332
77516;PMS7003;68414;53.946;27.634;2024-03-23T02:08:18;32.750000;29.766666;18.233334
77516;PMS7003;68414;53.946;27.634;2024-03-23T02:09:17;34.016666;30.233334;18.583334
77516;PMS7003;68414;53.946;27.634;2024-03-23T02:10:17;32.166668;30.116667;17.883333
77516;PMS7003;68414;53.946;27.634;2024-03-23T02:11:17;33.616665;31.516666;18.766666
77516;PMS7003;68414;53.946;27.634;2024-03-23T02:12:17;36.750000;32.116665;18.850000
77516;PMS7003;68414;53.946;27.634;2024-03-23T02:13:18;34.716667;31.383333;19.000000
77516;PMS7003;68414;53.946;27.634;2024-03-23T02:14:17;32.216667;30.016666;18.116667
77516;PMS7003;68414;53.946;27.634;2024-03-23T02:15:17;36.416668;32.049999;18.750000
77516;PMS7003;68414;53.946;27.634;2024-03-23T02:16:17;35.549999;31.683332;19.150000
77516;PMS7003;68414;53.946;27.634;2024-03-23T02:17:17;33.683334;30.950001;18.850000
77516;PMS7003;68414;53.946;27.634;2024-03-23T02:18:17;37.266666;32.616665;19.000000
77516;PMS7003;68414;53.946;27.634;2024-03-23T02:19:17;37.583332;31.066668;18.116667
77516;PMS7003;68414;53.946;27.634;2024-03-23T02:20:17;35.299999;31.766666;18.700001
77516;PMS7003;68414;53.946;27.634;2024-03-23T02:21:17;35.349998;32.049999;20.016666
77516;PMS7003;68414;53.946;27.634;2024-03-23T02:22:17;36.416668;31.400000;19.049999
77516;PMS7003;68414;53.946;27.634;2024-03-23T02:23:17;38.533333;32.766666;19.150000
77516;PMS7003;68414;53.946;27.634;2024-03-23T02:24:17;35.000000;29.866667;19.033333
77516;PMS7003;68414;53.946;27.634;2024-03-23T02:25:17;34.566666;31.416666;19.633333
77516;PMS7003;68414;53.946;27.634;2024-03-23T02:26:17;35.083332;30.983334;19.416666
77516;PMS7003;68414;53.946;27.634;2024-03-23T02:27:17;38.700001;33.750000;19.150000
77516;PMS7003;68414;53.946;27.634;2024-03-23T02:28:17;36.433334;32.016666;19.166666
77516;PMS7003;68414;53.946;27.634;2024-03-23T02:29:17;33.950001;31.033333;18.883333
77516;PMS7003;68414;53.946;27.634;2024-03-23T02:30:17;36.049999;32.099998;18.799999
77516;PMS7003;68414;53.946;27.634;2024-03-23T02:31:17;36.566666;32.483334;19.716667
77516;PMS7003;68414;53.946;27.634;2024-03-23T02:32:17;35.599998;31.816668;19.000000
77516;PMS7003;68414;53.946;27.634;2024-03-23T02:33:17;35.016666;31.233334;18.683332
77516;PMS7003;68414;53.946;27.634;2024-03-23T02:34:17;35.000000;30.816668;18.816668
77516;PMS7003;68414;53.946;27.634;2024-03-23T02:35:17;34.183334;31.600000;19.400000
77516;PMS7003;68414;53.946;27.634;2024-03-23T02:36:17;36.599998;32.049999;19.400000
77516;PMS7003;68414;53.946;27.634;2024-03-23T02:37:17;34.983334;31.700001;18.533333
77516;PMS7003;68414;53.946;27.634;2024-03-23T02:38:17;35.933334;31.700001;19.250000
77516;PMS7003;68414;53.946;27.634;2024-03-23T02:39:17;32.883335;29.433332;19.166666
77516;PMS7003;68414;53.946;27.634;2024-03-23T02:40:17;37.666668;33.299999;19.433332
77516;PMS7003;68414;53.946;27.634;2024-03-23T02:41:17;38.049999;33.200001;19.850000
77516;PMS7003;68414;53.946;27.634;2024-03-23T02:42:17;37.083332;32.583332;20.033333
77516;PMS7003;68414;53.946;27.634;2024-03-23T02:43:17;36.916668;32.366665;19.533333
77516;PMS7003;68414;53.946;27.634;2024-03-23T02:44:17;36.599998;32.116665;19.733334
77516;PMS7003;68414;53.946;27.634;2024-03-23T02:45:17;35.033333;30.533333;19.466667
77516;PMS7003;68414;53.946;27.634;2024-03-23T02:46:17;35.349998;31.866667;19.283333
77516;PMS7003;68414;53.946;27.634;2024-03-23T02:47:17;34.766666;31.566668;19.266666
77516;PMS7003;68414;53.946;27.634;2024-03-23T02:48:17;38.083332;32.549999;20.666666
77516;PMS7003;68414;53.946;27.634;2024-03-23T02:49:17;41.799999;34.433334;20.316668
77516;PMS7003;68414;53.946;27.634;2024-03-23T02:50:18;37.549999;32.266666;19.466667
77516;PMS7003;68414;53.946;27.634;2024-03-23T02:51:17;38.933334;33.833332;19.850000
77516;PMS7003;68414;53.946;27.634;2024-03-23T02:52:17;36.250000;31.983334;19.416666
77516;PMS7003;68414;53.946;27.634;2024-03-23T02:53:17;39.383335;34.116665;20.100000
77516;PMS7003;68414;53.946;27.634;2024-03-23T02:54:17;36.316666;31.400000;19.183332
77516;PMS7003;68414;53.946;27.634;2024-03-23T02:55:17;38.416668;33.250000;19.483334
77516;PMS7003;68414;53.946;27.634;2024-03-23T02:56:17;37.099998;33.049999;20.383333
77516;PMS7003;68414;53.946;27.634;2024-03-23T02:57:17;38.466667;32.900002;19.650000
77516;PMS7003;68414;53.946;27.634;2024-03-23T02:58:17;39.283333;33.849998;20.016666
77516;PMS7003;68414;53.946;27.634;2024-03-23T02:59:17;40.366665;33.099998;20.266666
77516;PMS7003;68414;53.946;27.634;2024-03-23T03:00:17;39.966667;33.033333;20.000000
77516;PMS7003;68414;53.946;27.634;2024-03-23T03:01:17;40.883335;34.716667;20.566668
77516;PMS7003;68414;53.946;27.634;2024-03-23T03:02:17;42.683334;34.766666;20.216667
77516;PMS7003;68414;53.946;27.634;2024-03-23T03:03:17;38.816666;33.116665;19.566668
77516;PMS7003;68414;53.946;27.634;2024-03-23T03:04:17;38.566666;33.033333;19.916666
77516;PMS7003;68414;53.946;27.634;2024-03-23T03:05:17;39.299999;33.666668;19.683332
77516;PMS7003;68414;53.946;27.634;2024-03-23T03:07:17;42.233334;35.116665;20.716667
77516;PMS7003;68414;53.946;27.634;2024-03-23T03:08:17;36.450001;32.049999;19.950001
77516;PMS7003;68414;53.946;27.634;2024-03-23T03:09:17;43.000000;35.716667;20.750000
77516;PMS7003;68414;53.946;27.634;2024-03-23T03:10:17;40.883335;34.516666;19.816668
77516;PMS7003;68414;53.946;27.634;2024-03-23T03:11:17;42.366665;34.633335;21.066668
77516;PMS7003;68414;53.946;27.634;2024-03-23T03:12:17;40.299999;33.083332;20.450001
77516;PMS7003;68414;53.946;27.634;2024-03-23T03:13:17;40.099998;34.066666;20.316668
77516;PMS7003;68414;53.946;27.634;2024-03-23T03:14:17;41.650002;34.483334;20.916666
77516;PMS7003;68414;53.946;27.634;2024-03-23T03:15:19;39.366665;33.500000;20.383333
77516;PMS7003;68414;53.946;27.634;2024-03-23T03:16:17;40.283333;34.983334;21.066668
77516;PMS7003;68414;53.946;27.634;2024-03-23T03:17:17;37.950001;33.416668;20.216667
77516;PMS7003;68414;53.946;27.634;2024-03-23T03:18:17;39.200001;33.400002;19.583334
77516;PMS7003;68414;53.946;27.634;2024-03-23T03:19:17;38.916668;32.900002;20.333334
77516;PMS7003;68414;53.946;27.634;2024-03-23T03:20:17;40.849998;33.983334;19.750000
77516;PMS7003;68414;53.946;27.634;2024-03-23T03:21:17;38.316666;33.416668;20.566668
77516;PMS7003;68414;53.946;27.634;2024-03-23T03:22:17;40.033333;35.016666;21.533333
77516;PMS7003;68414;53.946;27.634;2024-03-23T03:23:17;41.116665;34.666668;20.166666
77516;PMS7003;68414;53.946;27.634;2024-03-23T03:24:18;43.583332;36.066666;20.766666
77516;PMS7003;68414;53.946;27.634;2024-03-23T03:25:17;40.099998;33.750000;20.283333
77516;PMS7003;68414;53.946;27.634;2024-03-23T03:26:17;37.983334;32.933334;19.783333
77516;PMS7003;68414;53.946;27.634;2024-03-23T03:27:17;38.450001;34.016666;20.549999
77516;PMS7003;68414;53.946;27.634;2024-03-23T03:28:17;41.316666;35.133335;20.750000
77516;PMS7003;68414;53.946;27.634;2024-03-23T03:29:17;39.083332;33.216667;20.016666
77516;PMS7003;68414;53.946;27.634;2024-03-23T03:30:17;41.633335;35.299999;20.816668
77516;PMS7003;68414;53.946;27.634;2024-03-23T03:31:18;40.750000;34.833332;21.000000
77516;PMS7003;68414;53.946;27.634;2024-03-23T03:32:17;39.650002;34.200001;21.000000
77516;PMS7003;68414;53.946;27.634;2024-03-23T03:33:17;39.133335;33.766666;20.600000
77516;PMS7003;68414;53.946;27.634;2024-03-23T03:34:17;41.833332;35.299999;21.116667
77516;PMS7003;68414;53.946;27.634;2024-03-23T03:35:17;39.200001;33.266666;19.733334
77516;PMS7003;68414;53.946;27.634;2024-03-23T03:36:17;43.066666;35.033333;20.299999
77516;PMS7003;68414;53.946;27.634;2024-03-23T03:37:17;39.083332;33.333332;20.516666
77516;PMS7003;68414;53.946;27.634;2024-03-23T03:38:18;38.933334;33.450001;20.600000
77516;PMS7003;68414;53.946;27.634;2024-03-23T03:39:17;41.883335;35.066666;21.150000
77516;PMS7003;68414;53.946;27.634;2024-03-23T03:40:17;40.750000;34.299999;20.200001
77516;PMS7003;68414;53.946;27.634;2024-03-23T03:41:18;39.683334;34.733334;20.683332
77516;PMS7003;68414;53.946;27.634;2024-03-23T03:42:17;38.266666;33.116665;20.083334
77516;PMS7003;68414;53.946;27.634;2024-03-23T03:43:17;42.950001;35.483334;20.500000
77516;PMS7003;68414;53.946;27.634;2024-03-23T03:44:17;37.900002;33.400002;19.583334
77516;PMS7003;68414;53.946;27.634;2024-03-23T03:45:17;44.383335;36.183334;20.416666
77516;PMS7003;68414;53.946;27.634;2024-03-23T03:46:17;41.250000;34.783333;19.900000
77516;PMS7003;68414;53.946;27.634;2024-03-23T03:47:17;40.933334;35.099998;20.299999
77516;PMS7003;68414;53.946;27.634;2024-03-23T03:48:17;40.683334;34.049999;20.183332
77516;PMS7003;68414;53.946;27.634;2024-03-23T03:49:17;42.599998;34.333332;20.233334
77516;PMS7003;68414;53.946;27.634;2024-03-23T03:50:17;38.383335;33.433334;20.516666
77516;PMS7003;68414;53.946;27.634;2024-03-23T03:51:17;41.099998;34.750000;21.633333
77516;PMS7003;68414;53.946;27.634;2024-03-23T03:52:17;39.216667;34.183334;20.583334
77516;PMS7003;68414;53.946;27.634;2024-03-23T03:53:17;40.049999;33.683334;20.700001
77516;PMS7003;68414;53.946;27.634;2024-03-23T03:54:17;40.650002;34.733334;21.150000
77516;PMS7003;68414;53.946;27.634;2024-03-23T03:55:17;44.283333;36.133335;21.000000
77516;PMS7003;68414;53.946;27.634;2024-03-23T03:56:17;38.516666;33.250000;20.416666
77516;PMS7003;68414;53.946;27.634;2024-03-23T03:57:17;43.366665;35.416668;20.916666
77516;PMS7003;68414;53.946;27.634;2024-03-23T03:58:17;43.116665;35.416668;20.383333
77516;PMS7003;68414;53.946;27.634;2024-03-23T03:59:17;41.116665;35.316666;20.683332
77516;PMS7003;68414;53.946;27.634;2024-03-23T04:00:17;41.716667;33.650002;20.333334
77516;PMS7003;68414;53.946;27.634;2024-03-23T04:01:17;42.183334;36.116665;20.533333
77516;PMS7003;68414;53.946;27.634;2024-03-23T04:02:17;40.866665;35.383335;20.650000
77516;PMS7003;68414;53.946;27.634;2024-03-23T04:03:17;44.450001;37.066666;22.016666
77516;PMS7003;68414;53.946;27.634;2024-03-23T04:04:17;39.933334;35.133335;21.600000
77516;PMS7003;68414;53.946;27.634;2024-03-23T04:05:17;41.250000;34.950001;21.883333
77516;PMS7003;68414;53.946;27.634;2024-03-23T04:06:19;43.116665;35.299999;21.150000
77516;PMS7003;68414;53.946;27.634;2024-03-23T04:07:17;44.700001;37.033333;21.966667
77516;PMS7003;68414;53.946;27.634;2024-03-23T04:08:17;43.083332;35.900002;20.799999
77516;PMS7003;68414;53.946;27.634;2024-03-23T04:09:17;42.983334;35.566666;21.216667
77516;PMS7003;68414;53.946;27.634;2024-03-23T04:10:17;41.283333;34.616665;20.866667
77516;PMS7003;68414;53.946;27.634;2024-03-23T04:11:17;42.150002;35.133335;21.500000
77516;PMS7003;68414;53.946;27.634;2024-03-23T04:12:17;43.866665;35.650002;21.366667
77516;PMS7003;68414;53.946;27.634;2024-03-23T04:13:17;44.183334;35.833332;21.616667
77516;PMS7003;68414;53.946;27.634;2024-03-23T04:14:17;42.616665;35.666668;21.566668
77516;PMS7003;68414;53.946;27.634;2024-03-23T04:15:17;43.683334;35.833332;21.366667
77516;PMS7003;68414;53.946;27.634;2024-03-23T04:17:17;42.816666;35.783333;21.016666
77516;PMS7003;68414;53.946;27.634;2024-03-23T04:18:17;43.133335;36.000000;21.533333
77516;PMS7003;68414;53.946;27.634;2024-03-23T04:19:17;43.466667;35.933334;21.683332
77516;PMS7003;68414;53.946;27.634;2024-03-23T04:20:17;45.849998;37.033333;21.583334
77516;PMS7003;68414;53.946;27.634;2024-03-23T04:21:17;44.266666;36.950001;21.183332
77516;PMS7003;68414;53.946;27.634;2024-03-23T04:22:17;44.966667;36.799999;21.350000
77516;PMS7003;68414;53.946;27.634;2024-03-23T04:23:17;43.433334;36.333332;21.650000
77516;PMS7003;68414;53.946;27.634;2024-03-23T04:24:17;44.183334;36.583332;21.516666
77516;PMS7003;68414;53.946;27.634;2024-03-23T04:25:17;43.166668;35.383335;21.183332
77516;PMS7003;68414;53.946;27.634;2024-03-23T04:26:17;44.383335;36.433334;21.500000
77516;PMS7003;68414;53.946;27.634;2024-03-23T04:27:17;43.916668;36.766666;21.233334
77516;PMS7003;68414;53.946;27.634;2024-03-23T04:28:17;42.966667;36.366665;21.233334
77516;PMS7003;68414;53.946;27.634;2024-03-23T04:29:17;44.099998;36.983334;21.683332
77516;PMS7003;68414;53.946;27.634;2024-03-23T04:30:17;43.933334;35.583332;21.233334
77516;PMS7003;68414;53.946;27.634;2024-03-23T04:31:17;43.549999;36.466667;21.299999
77516;PMS7003;68414;53.946;27.634;2024-03-23T04:32:17;42.633335;35.966667;22.100000
77516;PMS7003;68414;53.946;27.634;2024-03-23T04:33:17;46.116665;37.733334;22.066668
77516;PMS7003;68414;53.946;27.634;2024-03-23T04:34:17;42.849998;35.283333;20.900000
77516;PMS7003;68414;53.946;27.634;2024-03-23T04:35:17;41.183334;34.233334;21.666666
77516;PMS7003;68414;53.946;27.634;2024-03-23T04:36:17;43.866665;35.750000;20.966667
77516;PMS7003;68414;53.946;27.634;2024-03-23T04:37:17;44.200001;37.049999;20.549999
77516;PMS7003;68414;53.946;27.634;2024-03-23T04:38:17;45.866665;36.666668;21.950001
77516;PMS7003;68414;53.946;27.634;2024-03-23T04:39:17;44.183334;36.333332;21.683332
77516;PMS7003;68414;53.946;27.634;2024-03-23T04:40:17;46.250000;38.099998;22.500000
77516;PMS7003;68414;53.946;27.634;2024-03-23T04:41:17;46.916668;38.116665;22.233334
77516;PMS7003;68414;53.946;27.634;2024-03-23T04:42:17;46.166668;37.933334;22.183332
77516;PMS7003;68414;53.946;27.634;2024-03-23T04:43:17;44.599998;35.933334;21.533333
77516;PMS7003;68414;53.946;27.634;2024-03-23T04:44:17;45.650002;38.066666;22.066668
77516;PMS7003;68414;53.946;27.634;2024-03-23T04:45:17;46.633335;38.200001;21.799999
77516;PMS7003;68414;53.946;27.634;2024-03-23T04:46:17;45.633335;38.033333;21.166666
77516;PMS7003;68414;53.946;27.634;2024-03-23T04:47:17;43.916668;36.599998;22.066668
77516;PMS7003;68414;53.946;27.634;2024-03-23T04:49:18;45.200001;37.816666;22.200001
77516;PMS7003;68414;53.946;27.634;2024-03-23T04:50:17;44.349998;36.333332;21.833334
77516;PMS7003;68414;53.946;27.634;2024-03-23T04:52:17;44.116665;37.083332;21.366667
77516;PMS7003;68414;53.946;27.634;2024-03-23T04:53:17;46.283333;37.933334;21.966667
77516;PMS7003;68414;53.946;27.634;2024-03-23T04:54:17;43.416668;36.633335;21.566668
77516;PMS7003;68414;53.946;27.634;2024-03-23T04:55:17;42.683334;35.966667;21.166666
77516;PMS7003;68414;53.946;27.634;2024-03-23T04:56:17;44.966667;36.833332;21.916666
77516;PMS7003;68414;53.946;27.634;2024-03-23T04:57:17;42.716667;36.500000;21.750000
77516;PMS7003;68414;53.946;27.634;2024-03-23T04:58:17;44.500000;36.299999;21.250000
77516;PMS7003;68414;53.946;27.634;2024-03-23T04:59:17;46.533333;37.666668;21.883333
77516;PMS7003;68414;53.946;27.634;2024-03-23T05:00:17;45.966667;36.950001;21.850000
77516;PMS7003;68414;53.946;27.634;2024-03-23T05:01:17;44.466667;36.700001;22.033333
77516;PMS7003;68414;53.946;27.634;2024-03-23T05:02:17;42.049999;35.033333;20.383333
77516;PMS7003;68414;53.946;27.634;2024-03-23T05:03:17;44.400002;36.316666;21.416666
77516;PMS7003;68414;53.946;27.634;2024-03-23T05:04:17;43.833332;36.200001;20.666666
77516;PMS7003;68414;53.946;27.634;2024-03-23T05:05:17;41.316666;35.016666;19.316668
77516;PMS7003;68414;53.946;27.634;2024-03-23T05:06:17;40.833332;34.883335;20.933332
77516;PMS7003;68414;53.946;27.634;2024-03-23T05:07:17;40.783333;35.000000;20.683332
77516;PMS7003;68414;53.946;27.634;2024-03-23T05:08:17;42.283333;35.416668;20.900000
77516;PMS7003;68414;53.946;27.634;2024-03-23T05:09:17;40.250000;34.450001;21.000000
77516;PMS7003;68414;53.946;27.634;2024-03-23T05:10:17;41.916668;35.349998;20.483334
77516;PMS7003;68414;53.946;27.634;2024-03-23T05:11:17;43.000000;35.450001;20.583334
77516;PMS7003;68414;53.946;27.634;2024-03-23T05:12:17;41.366665;34.766666;21.383333
77516;PMS7003;68414;53.946;27.634;2024-03-23T05:13:17;39.783333;34.299999;20.283333
77516;PMS7003;68414;53.946;27.634;2024-03-23T05:14:17;40.650002;34.766666;20.866667
77516;PMS7003;68414;53.946;27.634;2024-03-23T05:15:17;39.466667;34.566666;21.600000
77516;PMS7003;68414;53.946;27.634;2024-03-23T05:16:17;38.700001;32.883335;20.616667
77516;PMS7003;68414;53.946;27.634;2024-03-23T05:17:17;42.466667;35.799999;21.500000
77516;PMS7003;68414;53.946;27.634;2024-03-23T05:18:17;35.750000;32.150002;19.733334
77516;PMS7003;68414;53.946;27.634;2024-03-23T05:19:17;38.250000;32.950001;20.200001
77516;PMS7003;68414;53.946;27.634;2024-03-23T05:20:17;39.833332;34.599998;20.600000
77516;PMS7003;68414;53.946;27.634;2024-03-23T05:21:17;38.583332;32.833332;20.500000
77516;PMS7003;68414;53.946;27.634;2024-03-23T05:22:17;41.283333;34.700001;21.066668
77516;PMS7003;68414;53.946;27.634;2024-03-23T05:23:17;40.049999;33.700001;20.100000
77516;PMS7003;68414;53.946;27.634;2024-03-23T05:24:16;40.349998;34.183334;20.233334
77516;PMS7003;68414;53.946;27.634;2024-03-23T05:25:17;41.833332;34.966667;21.049999
77516;PMS7003;68414;53.946;27.634;2024-03-23T05:26:17;38.733334;33.566666;19.916666
77516;PMS7003;68414;53.946;27.634;2024-03-23T05:27:17;39.533333;33.833332;20.883333
77516;PMS7003;68414;53.946;27.634;2024-03-23T05:28:17;36.733334;32.299999;20.216667
77516;PMS7003;68414;53.946;27.634;2024-03-23T05:29:17;39.099998;33.466667;20.250000
77516;PMS7003;68414;53.946;27.634;2024-03-23T05:30:17;40.416668;34.333332;20.600000
77516;PMS7003;68414;53.946;27.634;2024-03-23T05:32:17;38.333332;33.266666;20.650000
77516;PMS7003;68414;53.946;27.634;2024-03-23T05:33:18;36.900002;32.433334;20.100000
77516;PMS7003;68414;53.946;27.634;2024-03-23T05:34:17;34.983334;31.650000;20.183332
77516;PMS7003;68414;53.946;27.634;2024-03-23T05:35:17;36.750000;32.799999;21.066668
77516;PMS7003;68414;53.946;27.634;2024-03-23T05:36:17;36.716667;32.599998;19.650000
77516;PMS7003;68414;53.946;27.634;2024-03-23T05:37:17;39.616665;33.533333;20.000000
77516;PMS7003;68414;53.946;27.634;2024-03-23T05:38:17;38.833332;33.366665;20.450001
77516;PMS7003;68414;53.946;27.634;2024-03-23T05:39:17;39.133335;33.433334;19.383333
77516;PMS7003;68414;53.946;27.634;2024-03-23T05:40:18;36.866665;31.833334;19.666666
77516;PMS7003;68414;53.946;27.634;2024-03-23T05:41:17;36.500000;32.750000;19.616667
77516;PMS7003;68414;53.946;27.634;2024-03-23T05:42:17;35.200001;31.166666;19.533333
77516;PMS7003;68414;53.946;27.634;2024-03-23T05:43:17;37.983334;31.783333;19.683332